Time;durP1;ratioP1;P1;durP2;ratioP2;P2;SDS_P1;SDS_P2;PMS_P1;PMS_P2;Temp;Humidity;BMP_temperature;BMP_pressure;BME280_temperature;BME280_humidity;BME280_pressure;Samples;Min_cycle;Max_cycle;Signal;HPM_P1;HPM_P2
2023/07/30 00:01:32;;;;;;;6.70;2.00;;;21.70;93.90;;;;;;5048649;28;20030;-57
2023/07/30 00:03:58;;;;;;;5.82;2.33;;;21.70;93.80;;;;;;5048950;28;20053;-56
2023/07/30 00:06:23;;;;;;;6.95;2.40;;;21.70;93.80;;;;;;5047147;28;20053;-56
2023/07/30 00:08:49;;;;;;;4.43;2.22;;;21.70;93.80;;;;;;5047021;28;20029;-57
2023/07/30 00:11:14;;;;;;;3.28;1.85;;;21.70;93.80;;;;;;5048464;28;20129;-57
2023/07/30 00:13:40;;;;;;;5.50;2.55;;;21.60;93.80;;;;;;5048404;28;20040;-57
2023/07/30 00:16:06;;;;;;;2.88;1.80;;;21.70;93.90;;;;;;5047147;28;20029;-57
2023/07/30 00:18:31;;;;;;;3.10;2.00;;;21.60;93.80;;;;;;5048294;28;20104;-56
2023/07/30 00:20:57;;;;;;;5.63;2.58;;;21.60;93.80;;;;;;5046891;28;20037;-57
2023/07/30 00:23:22;;;;;;;6.30;2.05;;;21.60;93.80;;;;;;5048378;28;20030;-56
2023/07/30 00:25:48;;;;;;;7.05;2.33;;;21.60;93.80;;;;;;5046836;28;20025;-57
2023/07/30 00:28:13;;;;;;;4.45;2.38;;;21.60;93.80;;;;;;5047203;28;20014;-56
2023/07/30 00:30:39;;;;;;;10.18;2.13;;;21.60;93.80;;;;;;5047203;28;20018;-56
2023/07/30 00:33:04;;;;;;;3.88;2.30;;;21.60;93.90;;;;;;5047926;28;20501;-56
2023/07/30 00:35:30;;;;;;;3.97;2.22;;;21.60;93.90;;;;;;5046795;28;20025;-57
2023/07/30 00:37:55;;;;;;;2.75;2.00;;;21.60;94.00;;;;;;5048026;28;20084;-56
2023/07/30 00:40:21;;;;;;;5.45;2.10;;;21.60;94.00;;;;;;5046623;28;20022;-57
2023/07/30 00:42:46;;;;;;;4.85;2.03;;;21.50;94.00;;;;;;5029894;28;20033;-57
2023/07/30 00:45:12;;;;;;;2.00;1.80;;;21.50;94.00;;;;;;5047794;28;20043;-57
2023/07/30 00:47:38;;;;;;;4.13;2.28;;;21.50;94.10;;;;;;5047812;28;20025;-56
2023/07/30 00:50:05;;;;;;;5.72;2.50;;;21.50;94.10;;;;;;5046596;28;20028;-56
2023/07/30 00:52:30;;;;;;;2.97;1.92;;;21.50;94.10;;;;;;5046519;28;20049;-56
2023/07/30 00:54:57;;;;;;;4.22;2.33;;;21.50;94.10;;;;;;5046289;28;20057;-57
2023/07/30 00:57:23;;;;;;;6.22;2.50;;;21.50;94.10;;;;;;5046044;28;20041;-57
2023/07/30 00:59:48;;;;;;;3.17;2.20;;;21.50;94.10;;;;;;5046233;28;20085;-56
2023/07/30 01:02:14;;;;;;;6.10;2.47;;;21.50;94.10;;;;;;5047485;28;20030;-57
2023/07/30 01:04:40;;;;;;;4.20;2.70;;;21.50;94.20;;;;;;5046255;28;20025;-57
2023/07/30 01:07:06;;;;;;;3.45;2.40;;;21.50;94.30;;;;;;5046122;28;20025;-57
2023/07/30 01:09:32;;;;;;;3.38;2.28;;;21.50;94.30;;;;;;5047221;28;20028;-57
2023/07/30 01:11:57;;;;;;;2.80;2.15;;;21.40;94.30;;;;;;5029508;28;20034;-57
2023/07/30 01:14:23;;;;;;;5.22;2.17;;;21.50;94.20;;;;;;5046022;28;20056;-56
2023/07/30 01:16:49;;;;;;;4.22;2.10;;;21.50;94.20;;;;;;5045950;28;20041;-57
2023/07/30 01:19:14;;;;;;;4.35;2.15;;;21.50;94.20;;;;;;5047205;28;20029;-57
2023/07/30 01:21:40;;;;;;;4.93;2.20;;;21.50;94.20;;;;;;5045698;28;20398;-56
2023/07/30 01:24:05;;;;;;;4.95;2.25;;;21.40;94.30;;;;;;5045787;28;20029;-57
2023/07/30 01:26:44;;;;;;;3.90;2.38;;;21.50;94.30;;;;;;5045609;28;20104;-57
2023/07/30 01:29:15;;;;;;;8.20;2.25;;;21.50;94.40;;;;;;5045755;28;20025;-57
2023/07/30 01:31:41;;;;;;;2.33;2.13;;;21.40;94.50;;;;;;5045645;28;20038;-56
2023/07/30 01:34:07;;;;;;;2.85;2.10;;;21.40;94.50;;;;;;5045749;28;20029;-56
2023/07/30 01:36:33;;;;;;;3.78;2.00;;;21.40;94.50;;;;;;5045465;28;20380;-56
2023/07/30 01:38:58;;;;;;;2.53;2.10;;;21.50;94.40;;;;;;5045581;28;20103;-56
2023/07/30 01:41:24;;;;;;;3.72;2.30;;;21.40;94.30;;;;;;5045411;28;20041;-56
2023/07/30 01:43:50;;;;;;;3.05;2.22;;;21.50;94.40;;;;;;5045096;28;20440;-57
2023/07/30 01:46:15;;;;;;;3.42;2.17;;;21.40;94.40;;;;;;5045229;28;20093;-56
2023/07/30 01:48:41;;;;;;;4.13;2.53;;;21.40;94.50;;;;;;5045458;28;20088;-56
2023/07/30 01:51:06;;;;;;;3.00;2.30;;;21.40;94.50;;;;;;5045185;28;20033;-56
2023/07/30 01:53:32;;;;;;;3.72;2.28;;;21.40;94.50;;;;;;5045355;28;20022;-56
2023/07/30 01:55:57;;;;;;;2.22;2.00;;;21.40;94.40;;;;;;5045274;28;20051;-56
2023/07/30 01:58:23;;;;;;;2.00;1.80;;;21.40;94.40;;;;;;5045431;28;20496;-56
2023/07/30 02:00:48;;;;;;;6.97;1.95;;;21.50;94.40;;;;;;5045187;28;20030;-56
2023/07/30 02:03:14;;;;;;;3.38;2.47;;;21.40;94.40;;;;;;5045346;28;20421;-56
2023/07/30 02:05:39;;;;;;;3.63;2.30;;;21.40;94.50;;;;;;5046423;28;20044;-56
2023/07/30 02:08:05;;;;;;;4.88;2.25;;;21.40;94.60;;;;;;5028703;28;20036;-57
2023/07/30 02:10:30;;;;;;;6.20;2.35;;;21.40;94.50;;;;;;5046533;28;20025;-56
2023/07/30 02:12:56;;;;;;;4.03;2.45;;;21.40;94.40;;;;;;5045225;28;20097;-56
2023/07/30 02:15:21;;;;;;;2.75;2.30;;;21.40;94.50;;;;;;5044988;28;20040;-56
2023/07/30 02:17:47;;;;;;;4.65;2.20;;;21.40;94.60;;;;;;5028497;28;20108;-56
2023/07/30 02:20:13;;;;;;;4.43;2.42;;;21.40;94.70;;;;;;5045114;28;20029;-56
2023/07/30 02:22:38;;;;;;;3.08;2.50;;;21.40;94.80;;;;;;5045171;28;20033;-56
2023/07/30 02:25:04;;;;;;;2.20;2.00;;;21.40;94.90;;;;;;5046111;28;20037;-56
2023/07/30 02:27:30;;;;;;;3.97;2.50;;;21.40;94.80;;;;;;5044932;28;20056;-56
2023/07/30 02:29:55;;;;;;;3.63;2.20;;;21.40;94.60;;;;;;5046159;28;20029;-56
2023/07/30 02:32:21;;;;;;;8.73;2.38;;;21.30;94.60;;;;;;5046101;28;20105;-56
2023/07/30 02:34:46;;;;;;;4.13;2.30;;;21.40;94.60;;;;;;5044917;28;20378;-55
2023/07/30 02:37:12;;;;;;;4.07;2.20;;;21.40;94.70;;;;;;5046011;28;20510;-57
2023/07/30 02:39:38;;;;;;;2.55;2.35;;;21.30;94.70;;;;;;5044943;28;20033;-56
2023/07/30 02:42:04;;;;;;;2.13;1.90;;;21.40;94.70;;;;;;5045959;28;20041;-56
2023/07/30 02:44:29;;;;;;;2.53;2.13;;;21.40;94.70;;;;;;5044798;28;20037;-56
2023/07/30 02:46:55;;;;;;;3.95;2.55;;;21.40;94.70;;;;;;5045952;28;20033;-56
2023/07/30 02:49:20;;;;;;;2.67;2.40;;;21.30;94.80;;;;;;5045847;28;20021;-56
2023/07/30 02:51:48;;;;;;;2.33;2.13;;;21.30;94.90;;;;;;5044617;28;20115;-56
2023/07/30 02:54:14;;;;;;;6.35;2.22;;;21.30;95.00;;;;;;5046714;28;20022;-56
2023/07/30 02:56:40;;;;;;;2.90;2.30;;;21.30;95.10;;;;;;5048543;28;20064;-57
2023/07/30 02:59:05;;;;;;;2.72;2.47;;;21.30;95.30;;;;;;5048587;28;20025;-57
2023/07/30 03:01:31;;;;;;;2.83;2.47;;;21.30;95.00;;;;;;5048584;28;20052;-56
2023/07/30 03:03:56;;;;;;;5.40;2.13;;;21.30;95.00;;;;;;5050693;28;20036;-56
2023/07/30 03:06:22;;;;;;;4.32;2.88;;;21.20;95.10;;;;;;5048927;28;20056;-56
2023/07/30 03:08:47;;;;;;;2.83;2.33;;;21.20;95.10;;;;;;5048574;28;20032;-55
2023/07/30 03:11:13;;;;;;;2.85;2.40;;;21.20;95.20;;;;;;5049513;28;20034;-57
2023/07/30 03:13:39;;;;;;;2.65;2.40;;;21.20;95.30;;;;;;5049715;28;20088;-56
2023/07/30 03:16:04;;;;;;;2.72;2.42;;;21.20;95.30;;;;;;5049223;28;20041;-57
2023/07/30 03:18:30;;;;;;;3.60;2.38;;;21.20;95.30;;;;;;5048472;28;20035;-56
2023/07/30 03:21:03;;;;;;;4.05;2.40;;;21.20;95.40;;;;;;5048096;28;20481;-56
2023/07/30 03:23:28;;;;;;;3.58;2.40;;;21.20;95.40;;;;;;5048201;28;20026;-56
2023/07/30 03:25:54;;;;;;;2.88;2.30;;;21.20;95.40;;;;;;5047876;28;20033;-57
2023/07/30 03:28:19;;;;;;;2.22;2.03;;;21.20;95.40;;;;;;5049261;28;20061;-56
2023/07/30 03:30:45;;;;;;;2.63;2.10;;;21.20;95.40;;;;;;5047942;28;20501;-56
2023/07/30 03:33:11;;;;;;;3.03;2.38;;;21.10;95.40;;;;;;5048000;28;20032;-56
2023/07/30 03:35:36;;;;;;;3.47;2.13;;;21.10;95.40;;;;;;5047923;28;20039;-56
2023/07/30 03:38:02;;;;;;;2.60;2.40;;;21.10;95.40;;;;;;5049187;28;20523;-56
2023/07/30 03:40:27;;;;;;;2.53;2.15;;;21.10;95.30;;;;;;5047710;28;20620;-56
2023/07/30 03:42:53;;;;;;;3.72;2.30;;;21.10;95.30;;;;;;5048133;28;20026;-56
2023/07/30 03:45:19;;;;;;;2.20;2.00;;;21.10;95.30;;;;;;5048098;28;20022;-57
2023/07/30 03:47:44;;;;;;;4.70;2.60;;;21.10;95.30;;;;;;5049124;28;20033;-56
2023/07/30 03:50:10;;;;;;;2.72;2.22;;;21.10;95.40;;;;;;5047556;28;20029;-56
2023/07/30 03:52:35;;;;;;;4.15;2.53;;;21.10;95.40;;;;;;5048922;28;20072;-56
2023/07/30 03:55:01;;;;;;;2.53;2.25;;;21.10;95.40;;;;;;5047550;28;20029;-57
2023/07/30 03:57:26;;;;;;;5.32;2.40;;;21.10;95.30;;;;;;5047647;28;20037;-56
2023/07/30 03:59:52;;;;;;;3.42;2.53;;;21.10;95.30;;;;;;5048860;28;20068;-56
2023/07/30 04:02:17;;;;;;;3.33;2.40;;;21.10;95.40;;;;;;5047456;28;20041;-56
2023/07/30 04:04:44;;;;;;;6.72;2.50;;;21.10;95.40;;;;;;5047268;28;20026;-56
2023/07/30 04:07:10;;;;;;;4.72;2.58;;;21.10;95.40;;;;;;5047299;28;20029;-56
2023/07/30 04:09:36;;;;;;;3.05;2.47;;;21.10;95.50;;;;;;5047257;28;20438;-56
2023/07/30 04:12:01;;;;;;;4.60;2.50;;;21.10;95.80;;;;;;5048529;28;20064;-56
2023/07/30 04:14:27;;;;;;;3.72;2.60;;;21.10;95.60;;;;;;5048523;28;20026;-56
2023/07/30 04:16:52;;;;;;;4.35;2.47;;;21.10;95.70;;;;;;5046942;28;20045;-57
2023/07/30 04:19:18;;;;;;;3.83;2.17;;;21.10;95.80;;;;;;5047185;28;20033;-56
2023/07/30 04:21:43;;;;;;;3.03;2.30;;;21.00;95.80;;;;;;5030370;28;20037;-56
2023/07/30 04:24:09;;;;;;;2.97;2.45;;;21.00;95.70;;;;;;5047085;28;20025;-56
2023/07/30 04:26:34;;;;;;;4.10;2.60;;;21.10;95.70;;;;;;5046887;28;20042;-57
2023/07/30 04:29:00;;;;;;;3.22;2.55;;;21.10;95.70;;;;;;5048113;28;20026;-56
2023/07/30 04:31:26;;;;;;;3.05;2.40;;;21.10;95.70;;;;;;5046866;28;20041;-56
2023/07/30 04:33:51;;;;;;;2.88;2.47;;;21.10;95.80;;;;;;5047087;28;20040;-56
2023/07/30 04:36:17;;;;;;;3.22;2.63;;;21.10;95.90;;;;;;5046672;28;20061;-56
2023/07/30 04:38:42;;;;;;;4.88;2.50;;;21.00;95.90;;;;;;5047800;28;20083;-56
2023/07/30 04:41:08;;;;;;;3.05;2.72;;;21.10;95.80;;;;;;5047740;28;20065;-56
2023/07/30 04:43:33;;;;;;;3.58;2.08;;;21.10;95.70;;;;;;5047769;28;20052;-57
2023/07/30 04:45:59;;;;;;;3.10;2.40;;;21.10;95.70;;;;;;5046629;28;20021;-56
2023/07/30 04:48:24;;;;;;;2.80;2.60;;;21.10;95.70;;;;;;5046377;28;20036;-56
2023/07/30 04:50:50;;;;;;;3.33;2.55;;;21.10;95.80;;;;;;5046263;28;20033;-56
2023/07/30 04:53:18;;;;;;;5.18;2.50;;;21.00;95.80;;;;;;5047752;28;20040;-56
2023/07/30 04:55:43;;;;;;;2.38;2.17;;;21.10;95.90;;;;;;5047533;28;20026;-56
2023/07/30 04:58:09;;;;;;;3.17;2.33;;;21.10;95.90;;;;;;5046400;28;20044;-56
2023/07/30 05:00:34;;;;;;;2.58;2.25;;;21.10;95.90;;;;;;5047550;28;20222;-56
2023/07/30 05:03:00;;;;;;;4.25;2.13;;;21.10;95.80;;;;;;5046177;28;20044;-56
2023/07/30 05:05:25;;;;;;;3.10;2.80;;;21.10;95.80;;;;;;5046190;28;20026;-56
2023/07/30 05:07:51;;;;;;;3.97;2.78;;;21.10;95.80;;;;;;5029791;28;20036;-56
2023/07/30 05:10:16;;;;;;;4.63;2.55;;;21.10;95.90;;;;;;5047420;28;20038;-56
2023/07/30 05:12:42;;;;;;;2.83;2.50;;;21.00;96.00;;;;;;5047285;28;20033;-57
2023/07/30 05:15:08;;;;;;;3.35;2.72;;;21.10;96.00;;;;;;5045861;28;20033;-56
2023/07/30 05:17:34;;;;;;;2.40;2.20;;;21.10;95.90;;;;;;5046272;28;20067;-56
2023/07/30 05:19:59;;;;;;;2.60;2.40;;;21.10;95.90;;;;;;5047007;28;20025;-56
2023/07/30 05:22:25;;;;;;;3.35;2.55;;;21.10;96.00;;;;;;5045612;28;20044;-56
2023/07/30 05:24:51;;;;;;;2.40;2.20;;;21.00;96.00;;;;;;5045879;28;20022;-56
2023/07/30 05:27:16;;;;;;;2.70;2.50;;;21.10;96.10;;;;;;5045688;28;20036;-56
2023/07/30 05:29:42;;;;;;;2.88;2.30;;;21.10;96.00;;;;;;5045741;28;20060;-56
2023/07/30 05:32:08;;;;;;;3.55;2.40;;;21.10;95.90;;;;;;5045540;28;20033;-56
2023/07/30 05:34:33;;;;;;;7.00;2.22;;;21.10;95.90;;;;;;5045756;28;20029;-57
2023/07/30 05:36:59;;;;;;;2.92;2.63;;;21.10;96.00;;;;;;5045619;28;20064;-56
2023/07/30 05:39:24;;;;;;;3.00;2.63;;;21.10;96.10;;;;;;5046885;28;20124;-56
2023/07/30 05:41:51;;;;;;;2.40;2.10;;;21.10;96.00;;;;;;5045067;28;20125;-56
2023/07/30 05:44:17;;;;;;;3.10;2.10;;;21.10;95.80;;;;;;5045918;28;20022;-55
2023/07/30 05:46:42;;;;;;;2.47;2.28;;;21.10;95.80;;;;;;5044974;28;20050;-56
2023/07/30 05:49:08;;;;;;;3.35;2.35;;;21.10;96.20;;;;;;5045199;28;20053;-56
2023/07/30 05:51:34;;;;;;;2.78;2.17;;;21.10;95.90;;;;;;5046317;28;20033;-57
2023/07/30 05:53:59;;;;;;;3.60;2.50;;;21.10;95.90;;;;;;5045389;28;20028;-56
2023/07/30 05:56:25;;;;;;;2.40;2.20;;;21.10;95.90;;;;;;5045219;28;20037;-56
2023/07/30 05:58:50;;;;;;;3.00;2.30;;;21.10;95.80;;;;;;5045777;28;20021;-56
2023/07/30 06:01:16;;;;;;;3.53;2.65;;;21.10;95.80;;;;;;5045172;28;20095;-56
2023/07/30 06:03:41;;;;;;;3.70;2.40;;;21.10;95.70;;;;;;5028735;28;20021;-56
2023/07/30 06:06:07;;;;;;;4.88;2.50;;;21.20;95.70;;;;;;5045023;28;20036;-57
2023/07/30 06:08:32;;;;;;;6.63;2.15;;;21.10;95.70;;;;;;5045182;28;20026;-57
2023/07/30 06:11:03;;;;;;;2.55;2.35;;;21.20;95.90;;;;;;5046273;28;20081;-56
2023/07/30 06:13:28;;;;;;;3.45;2.30;;;21.10;95.60;;;;;;5046516;28;20036;-56
2023/07/30 06:15:54;;;;;;;3.10;2.10;;;21.10;95.70;;;;;;5044908;28;20030;-56
2023/07/30 06:18:20;;;;;;;2.50;2.30;;;21.10;95.70;;;;;;5045187;28;20049;-56
2023/07/30 06:20:46;;;;;;;2.30;2.10;;;21.10;95.70;;;;;;5044724;28;20026;-56
2023/07/30 06:23:11;;;;;;;2.28;2.08;;;21.10;96.00;;;;;;5046347;28;20081;-56
2023/07/30 06:25:37;;;;;;;2.25;2.05;;;21.10;95.80;;;;;;5044972;28;20026;-57
2023/07/30 06:28:03;;;;;;;2.70;2.22;;;21.10;95.80;;;;;;5044932;28;20307;-56
2023/07/30 06:30:28;;;;;;;2.80;2.15;;;21.10;95.80;;;;;;5049238;28;20026;-56
2023/07/30 06:32:54;;;;;;;3.67;2.45;;;21.10;95.80;;;;;;5050439;28;20079;-56
2023/07/30 06:35:19;;;;;;;4.15;2.60;;;21.10;95.80;;;;;;5049091;28;20027;-56
2023/07/30 06:37:45;;;;;;;2.60;2.38;;;21.10;95.70;;;;;;5050216;28;20466;-56
2023/07/30 06:40:10;;;;;;;2.90;2.30;;;21.20;95.70;;;;;;5050333;28;20458;-56
2023/07/30 06:42:36;;;;;;;4.43;2.28;;;21.20;95.70;;;;;;5050151;28;20068;-56
2023/07/30 06:45:02;;;;;;;2.60;2.10;;;21.20;95.70;;;;;;5050162;28;20052;-56
2023/07/30 06:47:27;;;;;;;2.10;1.90;;;21.20;95.60;;;;;;5048722;28;20481;-56
2023/07/30 06:49:53;;;;;;;2.35;2.00;;;21.20;95.50;;;;;;5049894;28;20473;-56
2023/07/30 06:52:19;;;;;;;2.17;1.70;;;21.20;95.40;;;;;;5049858;28;20030;-56
2023/07/30 06:54:44;;;;;;;2.58;2.08;;;21.20;95.40;;;;;;5049914;28;20057;-56
2023/07/30 06:57:10;;;;;;;3.20;2.25;;;21.20;95.50;;;;;;5049790;28;20026;-56
2023/07/30 06:59:35;;;;;;;3.70;2.05;;;21.20;95.50;;;;;;5049806;28;20029;-56
2023/07/30 07:02:01;;;;;;;3.78;1.77;;;21.20;95.50;;;;;;5050041;28;20037;-56
2023/07/30 07:04:26;;;;;;;2.42;2.00;;;21.20;95.50;;;;;;5031917;28;20026;-56
2023/07/30 07:06:52;;;;;;;2.45;2.15;;;21.20;95.50;;;;;;5048397;28;20034;-56
2023/07/30 07:09:17;;;;;;;2.80;2.08;;;21.20;95.40;;;;;;5048448;28;20029;-56
2023/07/30 07:11:43;;;;;;;2.00;1.80;;;21.20;95.30;;;;;;5031675;28;20025;-56
2023/07/30 07:14:09;;;;;;;2.15;1.95;;;21.20;95.30;;;;;;5048099;28;20473;-56
2023/07/30 07:16:34;;;;;;;2.10;1.90;;;21.20;95.30;;;;;;5048153;28;20052;-56
2023/07/30 07:19:00;;;;;;;2.42;1.77;;;21.20;95.30;;;;;;5049394;28;20081;-56
2023/07/30 07:21:26;;;;;;;4.35;1.83;;;21.30;95.30;;;;;;5049129;28;20034;-56
2023/07/30 07:23:52;;;;;;;2.78;1.63;;;21.30;95.20;;;;;;5048171;28;20021;-56
2023/07/30 07:26:17;;;;;;;1.70;1.60;;;21.30;95.10;;;;;;5049315;28;20037;-56
2023/07/30 07:28:43;;;;;;;2.03;1.80;;;21.30;95.10;;;;;;5048001;28;20036;-56
2023/07/30 07:31:08;;;;;;;2.97;1.38;;;21.30;95.00;;;;;;5047952;28;20111;-56
2023/07/30 07:33:34;;;;;;;2.10;1.90;;;21.30;94.90;;;;;;5047723;28;20025;-56
2023/07/30 07:36:06;;;;;;;1.70;1.60;;;21.30;94.90;;;;;;5047703;28;20033;-56
2023/07/30 07:38:32;;;;;;;2.10;1.77;;;21.40;94.90;;;;;;5031232;28;20034;-56
2023/07/30 07:40:58;;;;;;;3.80;1.70;;;21.40;94.90;;;;;;5048224;28;20029;-56
2023/07/30 07:43:24;;;;;;;4.65;1.63;;;21.40;95.00;;;;;;5047690;28;20033;-56
2023/07/30 07:45:49;;;;;;;2.95;1.60;;;21.40;94.60;;;;;;5047444;28;20093;-56
2023/07/30 07:48:15;;;;;;;2.80;1.90;;;21.40;94.50;;;;;;5047441;28;20509;-56
2023/07/30 07:50:40;;;;;;;1.85;1.67;;;21.40;94.40;;;;;;5048487;28;20021;-56
2023/07/30 07:53:06;;;;;;;1.63;1.40;;;21.40;94.30;;;;;;5047565;28;20055;-56
2023/07/30 07:55:32;;;;;;;2.13;1.40;;;21.40;94.20;;;;;;5048842;28;20021;-56
2023/07/30 07:57:58;;;;;;;3.10;1.35;;;21.50;94.20;;;;;;5047140;28;20034;-56
2023/07/30 08:00:23;;;;;;;1.90;1.60;;;21.50;94.20;;;;;;5048468;28;20026;-56
2023/07/30 08:02:49;;;;;;;4.90;1.65;;;21.50;94.10;;;;;;5047597;28;20397;-56
2023/07/30 08:05:15;;;;;;;2.08;1.60;;;21.50;94.10;;;;;;5048246;28;20504;-56
2023/07/30 08:07:40;;;;;;;2.50;1.50;;;21.50;94.00;;;;;;5047102;28;20063;-56
2023/07/30 08:10:06;;;;;;;1.67;1.40;;;21.50;94.00;;;;;;5046434;28;20031;-56
2023/07/30 08:12:32;;;;;;;1.50;1.33;;;21.50;94.00;;;;;;5044668;28;20112;-56
2023/07/30 08:14:58;;;;;;;1.55;1.45;;;21.60;93.90;;;;;;5044710;28;20029;-56
2023/07/30 08:17:24;;;;;;;4.72;1.55;;;21.60;93.90;;;;;;5061644;28;20117;-56
2023/07/30 08:19:50;;;;;;;1.85;1.50;;;21.60;93.70;;;;;;5048225;28;20117;-56
2023/07/30 08:22:15;;;;;;;1.60;1.50;;;21.60;93.60;;;;;;5052269;28;20037;-57
2023/07/30 08:24:41;;;;;;;2.33;1.50;;;21.60;93.50;;;;;;5050016;28;20021;-56
2023/07/30 08:27:06;;;;;;;5.50;2.00;;;21.60;93.50;;;;;;5056898;28;20033;-56
2023/07/30 08:29:32;;;;;;;6.82;1.60;;;21.70;93.50;;;;;;5036455;28;20033;-56
2023/07/30 08:31:57;;;;;;;2.83;1.80;;;21.70;93.30;;;;;;5052772;28;20029;-56
2023/07/30 08:34:23;;;;;;;10.82;1.70;;;21.70;93.20;;;;;;5064532;28;20024;-56
2023/07/30 08:36:48;;;;;;;7.50;1.77;;;21.70;93.10;;;;;;5052463;28;20456;-56
2023/07/30 08:39:14;;;;;;;7.85;2.25;;;21.80;93.10;;;;;;5050960;28;20091;-56
2023/07/30 08:41:40;;;;;;;8.60;2.20;;;21.80;93.00;;;;;;5061645;28;20039;-56
2023/07/30 08:44:06;;;;;;;9.05;2.33;;;21.80;92.90;;;;;;5026523;28;20030;-56
2023/07/30 08:46:31;;;;;;;22.13;3.00;;;21.80;92.80;;;;;;5041325;28;20048;-56
2023/07/30 08:48:57;;;;;;;17.20;3.03;;;21.90;92.80;;;;;;5046205;28;20033;-56
2023/07/30 08:51:23;;;;;;;46.05;6.18;;;21.90;92.70;;;;;;5045701;28;20026;-56
2023/07/30 08:53:48;;;;;;;44.80;4.80;;;21.90;92.80;;;;;;5044440;28;20044;-56
2023/07/30 08:56:14;;;;;;;30.02;4.90;;;22.00;92.70;;;;;;5043567;28;20026;-56
2023/07/30 08:58:39;;;;;;;24.50;3.83;;;22.00;92.70;;;;;;5045704;28;20030;-56
2023/07/30 09:01:12;;;;;;;20.27;2.90;;;22.10;92.60;;;;;;5045586;28;20428;-56
2023/07/30 09:03:39;;;;;;;35.42;5.35;;;22.10;92.50;;;;;;5046312;28;20033;-55
2023/07/30 09:06:04;;;;;;;26.90;5.53;;;22.10;92.40;;;;;;5044826;28;20048;-56
2023/07/30 09:08:31;;;;;;;45.55;5.80;;;22.10;92.30;;;;;;5045765;28;20049;-56
2023/07/30 09:11:05;;;;;;;40.20;5.13;;;22.10;92.30;;;;;;5044439;28;20030;-56
2023/07/30 09:13:34;;;;;;;60.38;6.70;;;22.20;92.40;;;;;;5030411;28;20029;-56
2023/07/30 09:16:00;;;;;;;61.30;7.22;;;22.20;92.50;;;;;;5045529;28;20030;-56
2023/07/30 09:18:25;;;;;;;50.65;7.70;;;22.20;92.50;;;;;;5044662;28;20043;-56
2023/07/30 09:20:51;;;;;;;87.65;9.60;;;22.20;92.50;;;;;;5046332;28;20032;-56
2023/07/30 09:23:16;;;;;;;57.85;7.35;;;22.30;92.50;;;;;;5045333;28;20021;-56
2023/07/30 09:25:42;;;;;;;65.18;8.20;;;22.30;92.30;;;;;;5045133;28;20017;-57
2023/07/30 09:28:07;;;;;;;95.78;10.02;;;22.30;92.30;;;;;;5045199;28;20101;-57
2023/07/30 09:30:33;;;;;;;72.85;8.60;;;22.30;92.40;;;;;;5044880;28;20051;-56
2023/07/30 09:32:59;;;;;;;79.00;10.05;;;22.30;92.40;;;;;;5044831;28;20092;-57
2023/07/30 09:35:25;;;;;;;55.40;7.30;;;22.40;92.50;;;;;;5027921;28;20036;-56
2023/07/30 09:37:57;;;;;;;50.75;8.13;;;22.30;92.20;;;;;;5025381;28;20542;-56
2023/07/30 09:40:30;;;;;;;82.25;10.27;;;22.40;92.20;;;;;;5063735;28;20116;-56
2023/07/30 09:42:56;;;;;;;135.63;13.48;;;22.40;92.30;;;;;;5046391;28;20047;-56
2023/07/30 09:45:23;;;;;;;87.13;10.70;;;22.50;92.40;;;;;;5045872;28;20104;-56
2023/07/30 09:47:49;;;;;;;88.47;10.18;;;22.50;92.30;;;;;;5062371;28;20021;-56
2023/07/30 09:50:15;;;;;;;75.05;9.13;;;22.50;92.20;;;;;;5045612;28;20766;-57
2023/07/30 09:52:42;;;;;;;101.75;10.60;;;22.50;92.20;;;;;;5046109;28;20024;-57
2023/07/30 09:55:08;;;;;;;103.07;10.38;;;22.50;92.30;;;;;;5041410;28;20052;-57
2023/07/30 09:57:34;;;;;;;100.45;11.68;;;22.60;92.30;;;;;;5048344;28;20054;-56
2023/07/30 10:00:00;;;;;;;121.60;12.98;;;22.60;92.30;;;;;;5048911;28;20021;-57
2023/07/30 10:02:26;;;;;;;98.55;10.93;;;22.60;92.50;;;;;;5037091;28;20560;-56
2023/07/30 10:04:52;;;;;;;87.22;11.30;;;22.70;92.50;;;;;;5059254;22;20106;-55
2023/07/30 10:07:20;;;;;;;96.28;11.23;;;22.70;92.40;;;;;;5004141;28;20149;-55
2023/07/30 10:09:46;;;;;;;90.93;11.07;;;22.70;92.30;;;;;;4990000;28;20037;-55
2023/07/30 10:12:16;;;;;;;69.03;10.15;;;22.80;92.30;;;;;;5015238;28;20090;-55
2023/07/30 10:14:42;;;;;;;64.05;10.57;;;22.80;92.30;;;;;;4986039;28;20130;-55
2023/07/30 10:17:09;;;;;;;85.43;11.60;;;22.80;92.20;;;;;;5013960;28;20069;-55
2023/07/30 10:19:35;;;;;;;125.50;14.30;;;22.80;92.20;;;;;;5015657;28;20046;-55
2023/07/30 10:22:13;;;;;;;100.47;10.73;;;22.80;92.00;;;;;;5015461;28;20057;-55
2023/07/30 10:24:39;;;;;;;73.03;10.60;;;22.80;92.00;;;;;;5021696;28;20026;-55
2023/07/30 10:27:09;;;;;;;92.38;11.00;;;22.90;92.30;;;;;;4999408;28;20042;-55
2023/07/30 10:29:40;;;;;;;80.03;10.93;;;22.90;91.90;;;;;;4999391;28;20030;-55
2023/07/30 10:32:06;;;;;;;83.00;11.07;;;22.90;91.80;;;;;;5010419;28;20037;-55
2023/07/30 10:34:45;;;;;;;128.25;12.80;;;23.00;91.40;;;;;;5019784;28;20026;-55
2023/07/30 10:37:11;;;;;;;84.50;9.70;;;23.00;91.40;;;;;;5020813;28;20029;-55
2023/07/30 10:39:36;;;;;;;82.05;9.95;;;23.10;91.40;;;;;;5006075;28;20133;-55
2023/07/30 10:42:02;;;;;;;67.18;9.75;;;23.10;91.20;;;;;;5020412;28;20037;-55
2023/07/30 10:44:31;;;;;;;77.43;9.93;;;23.10;91.50;;;;;;5019645;28;20041;-55
2023/07/30 10:46:58;;;;;;;65.47;8.95;;;23.10;91.00;;;;;;5019769;28;20031;-54
2023/07/30 10:49:24;;;;;;;72.63;10.48;;;23.10;91.00;;;;;;5010481;28;20056;-55
2023/07/30 10:51:52;;;;;;;106.97;14.55;;;23.10;90.80;;;;;;5026959;28;20101;-55
2023/07/30 10:54:18;;;;;;;115.80;12.88;;;23.10;90.60;;;;;;5017694;28;20125;-55
2023/07/30 10:56:44;;;;;;;97.32;12.13;;;23.20;90.30;;;;;;5014379;28;20351;-55
2023/07/30 10:59:10;;;;;;;108.30;14.45;;;23.20;90.20;;;;;;5002356;28;20041;-54
2023/07/30 11:01:43;;;;;;;97.30;12.80;;;23.20;90.00;;;;;;5038053;28;20459;-54
2023/07/30 11:04:10;;;;;;;78.03;11.98;;;23.20;90.00;;;;;;5022628;28;20064;-55
2023/07/30 11:06:36;;;;;;;77.40;10.73;;;23.20;89.70;;;;;;5021392;28;20025;-54
2023/07/30 11:09:02;;;;;;;75.88;10.02;;;23.30;89.00;;;;;;5024296;28;20037;-55
2023/07/30 11:11:28;;;;;;;100.32;13.05;;;23.30;88.40;;;;;;5021144;28;20076;-55
2023/07/30 11:13:54;;;;;;;118.90;13.15;;;23.30;88.30;;;;;;5004017;28;20030;-55
2023/07/30 11:16:19;;;;;;;75.53;11.05;;;23.40;88.50;;;;;;5008259;28;20101;-55
2023/07/30 11:18:47;;;;;;;97.15;12.07;;;23.40;89.00;;;;;;5026624;28;20029;-55
2023/07/30 11:21:14;;;;;;;121.57;13.68;;;23.50;88.30;;;;;;5023688;28;20140;-55
2023/07/30 11:23:43;;;;;;;69.97;9.93;;;23.60;87.90;;;;;;5025190;28;20037;-55
2023/07/30 11:26:18;;;;;;;85.43;12.90;;;23.60;87.50;;;;;;5024571;28;20026;-55
2023/07/30 11:28:44;;;;;;;99.35;13.73;;;23.70;87.20;;;;;;5003585;28;20090;-55
2023/07/30 11:31:15;;;;;;;89.47;13.18;;;23.70;87.50;;;;;;5024825;28;20057;-55
2023/07/30 11:33:45;;;;;;;112.80;14.85;;;23.70;86.10;;;;;;5025440;28;20038;-55
2023/07/30 11:36:15;;;;;;;103.95;11.18;;;23.80;85.60;;;;;;5023677;28;20038;-55
2023/07/30 11:38:41;;;;;;;80.47;11.18;;;23.80;84.80;;;;;;5025395;28;20029;-55
2023/07/30 11:41:09;;;;;;;89.85;11.05;;;23.90;84.60;;;;;;5008138;28;20403;-55
2023/07/30 11:43:39;;;;;;;86.43;11.43;;;24.00;84.30;;;;;;5027100;28;20026;-55
2023/07/30 11:46:15;;;;;;;94.68;13.63;;;24.10;83.80;;;;;;5022648;28;20030;-55
2023/07/30 11:48:41;;;;;;;107.60;13.68;;;24.20;83.30;;;;;;5024773;28;20041;-53
2023/07/30 11:51:16;;;;;;;81.10;11.50;;;24.20;82.90;;;;;;5021402;28;20061;-55
2023/07/30 11:53:50;;;;;;;140.65;17.00;;;24.30;82.30;;;;;;5009151;28;20052;-55
2023/07/30 11:56:21;;;;;;;111.95;14.50;;;24.40;81.90;;;;;;5017406;28;20109;-55
2023/07/30 11:58:47;;;;;;;125.63;15.50;;;24.40;81.60;;;;;;5022111;28;20060;-55
2023/07/30 12:01:14;;;;;;;124.30;13.93;;;24.40;81.40;;;;;;5024669;28;20041;-55
2023/07/30 12:03:41;;;;;;;143.25;17.38;;;24.50;81.10;;;;;;5019258;28;20106;-55
2023/07/30 12:06:07;;;;;;;117.75;14.00;;;24.50;80.40;;;;;;5019669;28;20069;-55
2023/07/30 12:08:33;;;;;;;91.05;13.00;;;24.50;80.00;;;;;;5022652;28;20056;-55
2023/07/30 12:11:02;;;;;;;105.80;13.15;;;24.50;80.40;;;;;;5023224;28;20074;-55
2023/07/30 12:13:28;;;;;;;111.40;12.32;;;24.50;79.30;;;;;;5023342;28;20030;-55
2023/07/30 12:15:54;;;;;;;127.03;14.30;;;24.60;79.10;;;;;;5022892;28;20037;-55
2023/07/30 12:18:21;;;;;;;140.90;16.75;;;24.60;78.90;;;;;;5003126;28;20089;-55
2023/07/30 12:20:47;;;;;;;98.47;12.63;;;24.60;78.50;;;;;;5024136;28;20026;-55
2023/07/30 12:23:12;;;;;;;97.97;11.27;;;24.60;78.10;;;;;;4995238;28;20053;-55
2023/07/30 12:25:38;;;;;;;90.60;11.10;;;24.60;77.80;;;;;;5009462;28;21398;-55
2023/07/30 12:28:04;;;;;;;72.68;9.82;;;24.70;77.60;;;;;;5024686;28;20022;-55
2023/07/30 12:30:30;;;;;;;78.70;10.05;;;24.80;75.90;;;;;;5023090;28;20064;-55
2023/07/30 12:32:56;;;;;;;88.30;11.18;;;24.80;75.70;;;;;;5022839;28;20034;-55
2023/07/30 12:35:21;;;;;;;88.97;10.07;;;24.90;75.50;;;;;;5024915;28;20116;-55